createdAt,value
2024-04-18T00:00:05.229Z,3.47
2024-04-18T00:02:33.627Z,3.44
2024-04-18T00:05:02.296Z,3.41
2024-04-18T00:07:30.564Z,3.38
2024-04-18T00:09:58.758Z,3.34
2024-04-18T00:12:27.112Z,3.29
2024-04-18T00:14:55.453Z,3.24
2024-04-18T00:17:23.934Z,3.19
2024-04-18T00:19:52.401Z,3.15
2024-04-18T00:22:20.504Z,3.12
2024-04-18T00:24:48.630Z,3.08
2024-04-18T00:27:16.855Z,3.05
2024-04-18T00:29:44.974Z,3.02
2024-04-18T00:32:17.358Z,2.98
2024-04-18T00:34:45.650Z,2.96
2024-04-18T00:37:13.726Z,2.94
2024-04-18T00:39:42.242Z,2.94
2024-04-18T00:42:10.420Z,2.93
2024-04-18T00:44:38.700Z,2.93
2024-04-18T00:47:08.320Z,2.93
2024-04-18T00:49:36.522Z,2.92
2024-04-18T00:52:05.083Z,2.90
2024-04-18T00:54:33.247Z,2.88
2024-04-18T00:57:01.960Z,2.86
2024-04-18T00:59:30.607Z,2.84
2024-04-18T01:01:58.772Z,2.82
2024-04-18T01:04:27.562Z,2.81
2024-04-18T01:06:55.963Z,2.80
2024-04-18T01:09:24.255Z,2.79
2024-04-18T01:11:53.277Z,2.77
2024-04-18T01:14:21.617Z,2.74
2024-04-18T01:16:49.913Z,2.73
2024-04-18T01:19:20.338Z,2.72
2024-04-18T01:21:48.724Z,2.71
2024-04-18T01:24:17.064Z,2.71
2024-04-18T01:26:45.425Z,2.70
2024-04-18T01:29:13.549Z,2.70
2024-04-18T01:31:41.750Z,2.67
2024-04-18T01:34:10.029Z,2.65
2024-04-18T01:36:38.389Z,2.64
2024-04-18T01:39:06.710Z,2.63
2024-04-18T01:41:35.637Z,2.63
2024-04-18T01:44:04.230Z,2.64
2024-04-18T01:46:32.350Z,2.64
2024-04-18T01:49:00.884Z,2.64
2024-04-18T01:51:29.569Z,2.64
2024-04-18T01:53:58.233Z,2.63
2024-04-18T01:56:26.364Z,2.63
2024-04-18T01:58:54.536Z,2.64
2024-04-18T02:01:24.854Z,2.65
2024-04-18T02:03:53.176Z,2.65
2024-04-18T02:06:21.778Z,2.65
2024-04-18T02:08:50.222Z,2.67
2024-04-18T02:11:18.594Z,2.70
2024-04-18T02:13:46.936Z,2.74
2024-04-18T02:16:15.048Z,2.78
2024-04-18T02:18:43.244Z,2.80
2024-04-18T02:21:11.538Z,2.83
2024-04-18T02:23:39.681Z,2.85
2024-04-18T02:26:07.752Z,2.89
2024-04-18T02:28:37.410Z,2.93
2024-04-18T02:31:05.726Z,2.97
2024-04-18T02:33:33.998Z,3.03
2024-04-18T02:36:02.353Z,3.07
2024-04-18T02:38:30.446Z,3.12
2024-04-18T02:41:05.937Z,3.16
2024-04-18T02:43:34.386Z,3.21
2024-04-18T02:46:02.529Z,3.26
2024-04-18T02:48:31.252Z,3.31
2024-04-18T02:50:59.441Z,3.36
2024-04-18T02:53:27.567Z,3.40
2024-04-18T02:55:56.133Z,3.43
2024-04-18T02:58:24.168Z,3.44
2024-04-18T03:00:52.420Z,3.44
2024-04-18T03:03:21.006Z,3.43
2024-04-18T03:05:49.396Z,3.40
2024-04-18T03:08:17.459Z,3.37
2024-04-18T03:10:50.654Z,3.34
2024-04-18T03:13:19.342Z,3.32
2024-04-18T03:15:47.701Z,3.29
2024-04-18T03:18:15.984Z,3.26
2024-04-18T03:20:53.224Z,3.23
2024-04-18T03:23:21.660Z,3.21
2024-04-18T03:25:50.739Z,3.17
2024-04-18T03:28:18.913Z,3.14
2024-04-18T03:30:47.184Z,3.11
2024-04-18T03:33:15.461Z,3.07
2024-04-18T03:35:43.652Z,3.05
2024-04-18T03:38:12.057Z,3.03
2024-04-18T03:40:40.601Z,3.00
2024-04-18T03:43:08.960Z,2.99
2024-04-18T03:45:37.390Z,2.98
2024-04-18T03:48:05.907Z,2.96
2024-04-18T03:50:34.196Z,2.97
2024-04-18T03:53:02.357Z,2.97
2024-04-18T03:55:30.690Z,2.98
2024-04-18T03:57:58.799Z,2.98
2024-04-18T04:00:27.152Z,3.00
2024-04-18T04:02:55.259Z,3.03
2024-04-18T04:05:23.532Z,3.06
2024-04-18T04:07:52.452Z,3.09
2024-04-18T04:10:20.664Z,3.11
2024-04-18T04:12:48.787Z,3.15
2024-04-18T04:15:16.964Z,3.19
2024-04-18T04:17:46.392Z,3.23
2024-04-18T04:20:14.870Z,3.28
2024-04-18T04:22:43.533Z,3.34
2024-04-18T04:25:11.685Z,3.39
2024-04-18T04:27:39.792Z,3.42
2024-04-18T04:30:08.814Z,3.45
2024-04-18T04:32:37.172Z,3.48
2024-04-18T04:35:05.595Z,3.52
2024-04-18T04:37:33.636Z,3.56
2024-04-18T04:40:01.872Z,3.60
2024-04-18T04:42:30.116Z,3.63
2024-04-18T04:44:58.217Z,3.67
2024-04-18T04:47:26.414Z,3.72
2024-04-18T04:49:54.525Z,3.74
2024-04-18T04:52:22.774Z,3.77
2024-04-18T04:54:51.039Z,3.80
2024-04-18T04:57:19.720Z,3.85
2024-04-18T04:59:48.086Z,3.89
2024-04-18T05:02:16.464Z,3.93
2024-04-18T05:04:44.654Z,3.98
2024-04-18T05:07:13.780Z,4.03
2024-04-18T05:09:41.938Z,4.09
2024-04-18T05:12:10.384Z,4.15
2024-04-18T05:14:38.764Z,4.20
2024-04-18T05:17:08.073Z,4.25
2024-04-18T05:19:36.763Z,4.31
2024-04-18T05:22:04.882Z,4.38
2024-04-18T05:24:34.802Z,4.43
2024-04-18T05:27:03.466Z,4.49
2024-04-18T05:29:50.629Z,4.55
2024-04-18T05:32:18.796Z,4.63
2024-04-18T05:34:47.144Z,4.70
2024-04-18T05:37:34.485Z,4.75
2024-04-18T05:40:02.701Z,4.81
2024-04-18T05:42:30.944Z,4.87
2024-04-18T05:44:59.114Z,4.93
2024-04-18T05:47:27.714Z,4.98
2024-04-18T05:49:57.617Z,5.01
2024-04-18T05:52:25.796Z,5.05
2024-04-18T05:54:54.032Z,5.08
2024-04-18T05:57:23.151Z,5.10
2024-04-18T05:59:52.593Z,5.14
2024-04-18T06:02:21.766Z,5.20
2024-04-18T06:04:50.077Z,5.27
2024-04-18T06:07:18.382Z,5.33
2024-04-18T06:09:46.499Z,5.45
2024-04-18T06:12:15.102Z,5.55
2024-04-18T06:14:43.213Z,5.67
2024-04-18T06:17:11.370Z,5.79
2024-04-18T06:19:39.528Z,5.90
2024-04-18T06:22:07.693Z,6.02
2024-04-18T06:24:35.802Z,6.12
2024-04-18T06:27:03.911Z,6.25
2024-04-18T06:29:32.616Z,6.39
2024-04-18T06:32:00.703Z,6.52
2024-04-18T06:34:29.145Z,6.67
2024-04-18T06:36:57.377Z,6.78
2024-04-18T06:39:25.502Z,6.86
2024-04-18T06:41:54.574Z,6.95
2024-04-18T06:44:23.111Z,7.04
2024-04-18T06:47:00.185Z,7.15
2024-04-18T06:49:30.389Z,7.27
2024-04-18T06:51:58.616Z,7.36
2024-04-18T06:54:27.699Z,7.45
2024-04-18T06:56:55.847Z,7.56
2024-04-18T06:59:23.962Z,7.67
2024-04-18T07:01:52.242Z,7.76
2024-04-18T07:04:20.552Z,7.88
2024-04-18T07:06:48.794Z,8.00
2024-04-18T07:09:17.029Z,8.11
2024-04-18T07:11:45.701Z,8.27
2024-04-18T07:14:14.530Z,8.43
2024-04-18T07:16:42.789Z,8.58
2024-04-18T07:19:10.907Z,8.65
2024-04-18T07:21:39.115Z,8.72
2024-04-18T07:24:07.417Z,8.80
2024-04-18T07:26:35.818Z,8.88
2024-04-18T07:29:04.435Z,8.89
2024-04-18T07:31:32.601Z,9.01
2024-04-18T07:34:00.991Z,9.24
2024-04-18T07:36:29.340Z,9.35
2024-04-18T07:38:58.597Z,9.41
2024-04-18T07:41:26.690Z,9.43
2024-04-18T07:43:55.874Z,9.43
2024-04-18T07:46:29.324Z,9.47
2024-04-18T07:48:57.541Z,9.54
2024-04-18T07:51:26.017Z,9.60
2024-04-18T07:53:54.349Z,9.69
2024-04-18T07:56:22.981Z,9.84
2024-04-18T07:58:51.873Z,10.02
2024-04-18T08:01:22.244Z,10.13
2024-04-18T08:04:07.502Z,10.24
2024-04-18T08:06:42.768Z,10.33
2024-04-18T08:09:15.449Z,10.27
2024-04-18T08:12:17.652Z,10.19
2024-04-18T08:14:38.107Z,10.14
2024-04-18T08:17:08.869Z,10.14
2024-04-18T08:19:37.516Z,10.20
2024-04-18T08:22:05.628Z,10.27
2024-04-18T08:24:36.649Z,10.29
2024-04-18T08:27:05.332Z,10.29
2024-04-18T08:29:33.592Z,10.26
2024-04-18T08:32:01.788Z,10.18
2024-04-18T08:34:32.511Z,10.11
2024-04-18T08:37:01.738Z,9.98
2024-04-18T08:39:29.988Z,9.92
2024-04-18T08:42:00.146Z,9.94
2024-04-18T08:44:28.805Z,9.89
2024-04-18T08:46:59.616Z,9.78
2024-04-18T08:49:28.757Z,9.71
2024-04-18T08:51:59.825Z,9.61
2024-04-18T08:54:30.914Z,9.53
2024-04-18T08:57:01.800Z,9.52
2024-04-18T08:59:32.188Z,9.48
2024-04-18T09:02:01.946Z,9.33
2024-04-18T09:04:31.068Z,9.04
2024-04-18T09:07:01.209Z,8.72
2024-04-18T09:09:31.679Z,8.45
2024-04-18T09:12:01.055Z,8.29
2024-04-18T09:14:31.430Z,8.19
2024-04-18T09:17:00.855Z,8.17
2024-04-18T09:19:29.130Z,8.13
2024-04-18T09:22:02.102Z,8.10
2024-04-18T09:24:31.969Z,8.13
2024-04-18T09:27:00.255Z,8.25
2024-04-18T09:29:29.636Z,8.43
2024-04-18T09:32:01.245Z,8.63
2024-04-18T09:34:32.160Z,8.70
2024-04-18T09:37:06.050Z,8.58
2024-04-18T09:39:35.672Z,8.17
2024-04-18T09:42:17.667Z,7.72
2024-04-18T09:44:54.309Z,7.30
2024-04-18T09:47:27.293Z,7.08
2024-04-18T09:49:56.316Z,6.97
2024-04-18T09:52:26.534Z,6.98
2024-04-18T09:54:57.184Z,7.05
2024-04-18T09:57:28.515Z,7.12
2024-04-18T10:00:00.599Z,7.23
2024-04-18T10:02:31.008Z,7.39
2024-04-18T10:05:00.212Z,7.53
2024-04-18T10:07:30.081Z,7.70
2024-04-18T10:10:00.577Z,7.99
2024-04-18T10:12:33.352Z,8.55
2024-04-18T10:15:02.358Z,9.11
2024-04-18T10:17:32.517Z,9.57
2024-04-18T10:20:03.013Z,9.79
2024-04-18T10:22:45.383Z,9.70
2024-04-18T10:25:24.624Z,9.52
2024-04-18T10:27:54.509Z,9.38
2024-04-18T10:30:25.324Z,9.19
2024-04-18T10:32:56.559Z,9.09
2024-04-18T10:35:27.756Z,9.06
2024-04-18T10:37:58.748Z,9.08
2024-04-18T10:40:26.905Z,9.18
2024-04-18T10:43:17.824Z,9.42
2024-04-18T10:45:49.690Z,9.60
2024-04-18T10:48:19.822Z,9.58
2024-04-18T10:50:53.039Z,9.58
2024-04-18T10:53:21.352Z,9.61
2024-04-18T10:55:50.892Z,9.62
2024-04-18T10:58:19.018Z,9.66
2024-04-18T11:00:48.444Z,9.76
2024-04-18T11:03:17.939Z,9.93
2024-04-18T11:05:48.150Z,10.16
2024-04-18T11:08:17.434Z,10.52
2024-04-18T11:10:46.922Z,11.01
2024-04-18T11:13:16.765Z,11.65
2024-04-18T11:15:48.020Z,12.02
2024-04-18T11:18:17.456Z,12.15
2024-04-18T11:20:49.051Z,12.21
2024-04-18T11:23:17.558Z,12.25
2024-04-18T11:25:46.473Z,12.20
2024-04-18T11:28:14.723Z,12.24
2024-04-18T11:30:43.970Z,12.27
2024-04-18T11:33:12.752Z,12.18
2024-04-18T11:35:42.421Z,12.09
2024-04-18T11:38:12.675Z,12.02
2024-04-18T11:40:42.917Z,11.94
2024-04-18T11:43:11.263Z,11.82
2024-04-18T11:45:40.119Z,11.68
2024-04-18T11:48:08.589Z,11.57
2024-04-18T11:50:37.908Z,11.50
2024-04-18T11:53:06.092Z,11.43
2024-04-18T11:55:34.204Z,11.54
2024-04-18T11:58:06.695Z,12.08
2024-04-18T12:00:35.466Z,12.69
2024-04-18T12:03:05.660Z,12.94
2024-04-18T12:05:34.020Z,12.92
2024-04-18T12:08:02.442Z,12.75
2024-04-18T12:10:30.782Z,12.46
2024-04-18T12:12:59.326Z,12.21
2024-04-18T12:15:27.444Z,12.13
2024-04-18T12:17:55.673Z,12.41
2024-04-18T12:20:24.841Z,12.92
2024-04-18T12:22:53.115Z,13.09
2024-04-18T12:25:21.337Z,13.02
2024-04-18T12:27:50.901Z,12.90
2024-04-18T12:30:19.216Z,12.80
2024-04-18T12:32:47.410Z,12.70
2024-04-18T12:35:15.728Z,12.45
2024-04-18T12:37:44.326Z,12.25
2024-04-18T12:40:13.498Z,12.58
2024-04-18T12:42:41.700Z,13.13
2024-04-18T12:45:09.996Z,13.82
2024-04-18T12:47:38.337Z,14.60
2024-04-18T12:50:07.367Z,15.31
2024-04-18T12:52:39.477Z,15.94
2024-04-18T12:55:07.577Z,16.10
2024-04-18T12:57:35.869Z,15.81
2024-04-18T13:00:06.661Z,15.55
2024-04-18T13:02:34.976Z,15.68
2024-04-18T13:05:03.201Z,15.96
2024-04-18T13:07:31.923Z,16.24
2024-04-18T13:10:01.616Z,16.55
2024-04-18T13:12:29.991Z,17.00
2024-04-18T13:15:01.371Z,17.44
2024-04-18T13:17:29.703Z,17.35
2024-04-18T13:19:59.377Z,16.94
2024-04-18T13:22:27.560Z,16.57
2024-04-18T13:24:55.632Z,16.71
2024-04-18T13:27:24.822Z,17.06
2024-04-18T13:29:53.793Z,17.03
2024-04-18T13:32:21.922Z,16.66
2024-04-18T13:34:50.425Z,16.13
2024-04-18T13:37:18.537Z,15.63
2024-04-18T13:39:51.263Z,15.27
2024-04-18T13:42:19.544Z,15.06
2024-04-18T13:44:47.802Z,15.59
2024-04-18T13:47:16.180Z,16.15
2024-04-18T13:49:44.344Z,16.37
2024-04-18T13:52:12.858Z,16.38
2024-04-18T13:54:41.152Z,16.11
2024-04-18T13:57:09.388Z,16.00
2024-04-18T13:59:37.491Z,15.75
2024-04-18T14:02:05.729Z,15.39
2024-04-18T14:04:33.901Z,15.05
2024-04-18T14:07:02.357Z,15.12
2024-04-18T14:09:37.912Z,15.59
2024-04-18T14:12:06.935Z,15.58
2024-04-18T14:14:37.973Z,15.42
2024-04-18T14:17:24.538Z,15.25
2024-04-18T14:19:53.438Z,15.13
2024-04-18T14:22:22.578Z,14.97
2024-04-18T14:24:50.774Z,14.77
2024-04-18T14:27:19.071Z,14.55
2024-04-18T14:29:47.229Z,14.29
2024-04-18T14:32:15.672Z,13.98
2024-04-18T14:34:44.229Z,13.58
2024-04-18T14:37:12.493Z,13.00
2024-04-18T14:39:40.806Z,12.31
2024-04-18T14:42:09.023Z,11.74
2024-04-18T14:44:37.197Z,11.24
2024-04-18T14:47:05.330Z,11.00
2024-04-18T14:49:35.829Z,10.91
2024-04-18T14:52:04.520Z,10.88
2024-04-18T14:54:33.022Z,10.93
2024-04-18T14:57:01.640Z,10.94
2024-04-18T14:59:30.211Z,10.97
2024-04-18T15:02:00.447Z,11.12
2024-04-18T15:04:31.603Z,11.67
2024-04-18T15:07:00.360Z,12.18
2024-04-18T15:09:28.712Z,12.95
2024-04-18T15:11:57.341Z,13.99
2024-04-18T15:14:25.774Z,14.99
2024-04-18T15:16:53.860Z,15.98
2024-04-18T15:19:22.074Z,16.95
2024-04-18T15:21:50.324Z,18.10
2024-04-18T15:24:23.068Z,19.12
2024-04-18T15:26:51.921Z,20.06
2024-04-18T15:29:21.161Z,20.95
2024-04-18T15:31:49.269Z,21.76
2024-04-18T15:34:17.632Z,22.19
2024-04-18T15:36:46.078Z,22.44
2024-04-18T15:39:14.273Z,22.85
2024-04-18T15:41:44.563Z,23.55
2024-04-18T15:44:12.749Z,24.26
2024-04-18T15:46:41.515Z,24.74
2024-04-18T15:49:10.216Z,25.15
2024-04-18T15:51:39.926Z,25.58
2024-04-18T15:54:08.301Z,26.24
2024-04-18T15:56:36.510Z,27.11
2024-04-18T15:59:04.605Z,27.68
2024-04-18T16:01:32.843Z,27.99
2024-04-18T16:04:01.127Z,28.37
2024-04-18T16:06:29.457Z,29.13
2024-04-18T16:08:57.728Z,28.99
2024-04-18T16:11:25.981Z,26.88
2024-04-18T16:13:54.278Z,24.66
2024-04-18T16:16:22.411Z,22.64
2024-04-18T16:18:51.298Z,20.84
2024-04-18T16:21:19.622Z,19.20
2024-04-18T16:23:48.227Z,17.71
2024-04-18T16:26:16.329Z,16.55
2024-04-18T16:28:46.073Z,15.52
2024-04-18T16:31:14.233Z,14.70
2024-04-18T16:33:42.974Z,13.93
2024-04-18T16:36:17.912Z,13.10
2024-04-18T16:38:52.798Z,12.32
2024-04-18T16:41:21.057Z,11.68
2024-04-18T16:43:49.131Z,11.09
2024-04-18T16:46:18.805Z,10.60
2024-04-18T16:48:47.104Z,10.13
2024-04-18T16:51:15.384Z,9.64
2024-04-18T16:53:43.719Z,9.18
2024-04-18T16:56:11.793Z,8.83
2024-04-18T16:58:40.086Z,8.52
2024-04-18T17:01:09.683Z,8.23
2024-04-18T17:03:38.193Z,7.97
2024-04-18T17:06:06.940Z,8.27
2024-04-18T17:08:35.063Z,9.85
2024-04-18T17:11:03.379Z,10.46
2024-04-18T17:13:31.838Z,10.41
2024-04-18T17:16:07.096Z,9.93
2024-04-18T17:18:35.550Z,9.50
2024-04-18T17:21:04.333Z,9.17
2024-04-18T17:23:32.714Z,8.97
2024-04-18T17:26:01.083Z,8.79
2024-04-18T17:28:29.277Z,8.60
2024-04-18T17:30:57.396Z,8.42
2024-04-18T17:33:26.699Z,8.23
2024-04-18T17:35:56.315Z,8.06
2024-04-18T17:38:24.507Z,7.85
2024-04-18T17:40:52.733Z,7.64
2024-04-18T17:43:20.926Z,7.44
2024-04-18T17:45:49.618Z,7.26
2024-04-18T17:48:18.286Z,7.10
2024-04-18T17:50:46.760Z,6.95
2024-04-18T17:53:15.653Z,6.83
2024-04-18T17:55:43.752Z,6.72
2024-04-18T17:58:11.910Z,6.62
2024-04-18T18:00:41.821Z,6.53
2024-04-18T18:03:10.220Z,6.43
2024-04-18T18:05:38.747Z,6.33
2024-04-18T18:08:07.211Z,6.25
2024-04-18T18:10:35.450Z,6.19
2024-04-18T18:13:03.993Z,6.14
2024-04-18T18:15:32.307Z,6.07
2024-04-18T18:18:01.154Z,6.02
2024-04-18T18:20:29.570Z,5.96
2024-04-18T18:22:57.878Z,5.93
2024-04-18T18:25:26.484Z,5.89
2024-04-18T18:27:54.609Z,5.86
2024-04-18T18:30:23.245Z,5.83
2024-04-18T18:32:51.980Z,5.79
2024-04-18T18:35:20.168Z,5.77
2024-04-18T18:37:49.759Z,5.77
2024-04-18T18:40:18.046Z,5.76
2024-04-18T18:42:46.806Z,5.76
2024-04-18T18:45:15.439Z,5.76
2024-04-18T18:47:44.204Z,5.77
2024-04-18T18:50:12.548Z,5.78
2024-04-18T18:52:40.744Z,5.78
2024-04-18T18:55:09.367Z,5.79
2024-04-18T18:57:37.653Z,5.80
2024-04-18T19:00:06.907Z,5.79
2024-04-18T19:02:35.149Z,5.79
2024-04-18T19:05:03.525Z,5.77
2024-04-18T19:07:31.643Z,5.74
2024-04-18T19:10:00.989Z,5.72
2024-04-18T19:12:29.304Z,5.70
2024-04-18T19:14:57.709Z,5.68
2024-04-18T19:17:26.425Z,5.65
2024-04-18T19:19:55.380Z,5.64
2024-04-18T19:22:23.771Z,5.60
2024-04-18T19:24:52.023Z,5.55
2024-04-18T19:27:20.474Z,5.52
2024-04-18T19:29:49.427Z,5.49
2024-04-18T19:32:19.827Z,5.47
2024-04-18T19:34:48.234Z,5.45
2024-04-18T19:37:16.572Z,5.44
2024-04-18T19:39:44.943Z,5.43
2024-04-18T19:42:13.167Z,5.41
2024-04-18T19:44:41.433Z,5.39
2024-04-18T19:47:09.802Z,5.38
2024-04-18T19:49:38.356Z,5.36
2024-04-18T19:52:08.454Z,5.33
2024-04-18T19:54:39.320Z,5.31
2024-04-18T19:57:07.632Z,5.30
2024-04-18T19:59:36.251Z,5.28
2024-04-18T20:02:04.898Z,5.26
2024-04-18T20:04:33.120Z,5.25
2024-04-18T20:07:01.491Z,5.25
2024-04-18T20:09:35.472Z,5.24
2024-04-18T20:12:04.793Z,5.24
2024-04-18T20:14:34.475Z,5.24
2024-04-18T20:17:02.855Z,5.24
2024-04-18T20:19:31.044Z,5.26
2024-04-18T20:21:59.175Z,5.25
2024-04-18T20:24:29.362Z,5.25
2024-04-18T20:26:57.726Z,5.25
2024-04-18T20:29:25.955Z,5.25
2024-04-18T20:31:54.150Z,5.22
2024-04-18T20:34:22.512Z,5.19
2024-04-18T20:36:50.933Z,5.16
2024-04-18T20:39:20.639Z,5.13
2024-04-18T20:41:48.851Z,5.11
2024-04-18T20:44:16.964Z,5.09
2024-04-18T20:46:45.228Z,5.08
2024-04-18T20:49:15.505Z,5.09
2024-04-18T20:51:43.904Z,5.11
2024-04-18T20:54:12.143Z,5.13
2024-04-18T20:56:40.282Z,5.14
2024-04-18T20:59:08.482Z,5.15
2024-04-18T21:01:36.834Z,5.15
2024-04-18T21:04:05.449Z,5.16
2024-04-18T21:06:34.114Z,5.15
2024-04-18T21:09:05.204Z,5.15
2024-04-18T21:11:33.756Z,5.14
2024-04-18T21:14:02.777Z,5.12
2024-04-18T21:16:31.056Z,5.10
2024-04-18T21:18:59.473Z,5.06
2024-04-18T21:21:28.147Z,5.01
2024-04-18T21:23:56.296Z,4.96
2024-04-18T21:26:24.663Z,4.91
2024-04-18T21:28:53.088Z,4.86
2024-04-18T21:31:21.306Z,4.81
2024-04-18T21:33:49.761Z,4.75
2024-04-18T21:36:18.467Z,4.72
2024-04-18T21:38:54.506Z,4.67
2024-04-18T21:41:28.993Z,4.61
2024-04-18T21:43:58.326Z,4.57
2024-04-18T21:46:26.965Z,4.53
2024-04-18T21:48:55.127Z,4.49
2024-04-18T21:51:37.432Z,4.46
2024-04-18T21:54:07.237Z,4.42
2024-04-18T21:56:35.678Z,4.39
2024-04-18T21:59:03.791Z,4.35
2024-04-18T22:01:32.241Z,4.31
2024-04-18T22:04:00.538Z,4.27
2024-04-18T22:06:28.892Z,4.22
2024-04-18T22:08:57.146Z,4.18
2024-04-18T22:11:25.755Z,4.14
2024-04-18T22:13:54.162Z,4.10
2024-04-18T22:16:24.419Z,4.07
2024-04-18T22:18:53.115Z,4.03
2024-04-18T22:21:21.408Z,4.00
2024-04-18T22:23:52.064Z,3.96
2024-04-18T22:26:20.997Z,3.93
2024-04-18T22:28:49.342Z,3.90
2024-04-18T22:31:17.590Z,3.86
2024-04-18T22:33:47.291Z,3.82
2024-04-18T22:36:16.014Z,3.77
2024-04-18T22:38:44.257Z,3.73
2024-04-18T22:41:12.542Z,3.69
2024-04-18T22:43:40.767Z,3.65
2024-04-18T22:46:08.964Z,3.62
2024-04-18T22:48:39.014Z,3.58
2024-04-18T22:51:07.391Z,3.54
2024-04-18T22:53:36.217Z,3.52
2024-04-18T22:56:04.758Z,3.48
2024-04-18T22:58:33.003Z,3.45
2024-04-18T23:01:01.414Z,3.42
2024-04-18T23:03:29.871Z,3.37
2024-04-18T23:05:58.116Z,3.35
2024-04-18T23:08:26.305Z,3.32
2024-04-18T23:10:54.588Z,3.28
2024-04-18T23:13:22.904Z,3.25
2024-04-18T23:15:51.488Z,3.23
2024-04-18T23:18:20.227Z,3.20
2024-04-18T23:20:48.579Z,3.18
2024-04-18T23:23:17.239Z,3.17
2024-04-18T23:25:45.684Z,3.14
2024-04-18T23:28:13.827Z,3.12
2024-04-18T23:30:42.545Z,3.12
2024-04-18T23:33:12.565Z,3.11
2024-04-18T23:35:43.623Z,3.10
2024-04-18T23:38:12.712Z,3.09
2024-04-18T23:40:41.482Z,3.07
2024-04-18T23:43:09.734Z,3.05
2024-04-18T23:45:38.031Z,3.04
2024-04-18T23:48:07.829Z,3.02
2024-04-18T23:50:36.359Z,2.99
2024-04-18T23:53:05.319Z,2.97
2024-04-18T23:55:33.962Z,2.95
2024-04-18T23:58:02.390Z,2.93
